Terminal Aerodrome Forecast
Issued by NWS Grand Forks, ND

Home | Current Version | Previous Version | Text Only | Print | Product List | Glossary Off
Versions: 1 2 3 4 5 6 7 8 9 10 11 12 13 14 15 16 17 18

000
FTUS43 KFGF 141732
TAFFAR
TAF
KFAR 141732Z 1418/1518 24012KT 2SM -SN BKN015 OVC020
      TEMPO 1418/1420 1/2SM -SN BLSN OVC015
     FM142000 31016G24KT 3SM BLSN BKN020
     FM142200 33021G29KT 6SM BLSN BKN040
     FM150200 34019G27KT P6SM BKN030
     FM151100 34015G24KT 6SM BLSN BKN020=

USA.gov is the U.S. government's official web portal to all federal, state and local government web resources and services.